This is the latest recevied weather packets stored in our database for station/object SQ5DN-4. If no packets are shown the sender has not sent any weather packets the latest 10 day(s).
| Time | Temp. | Humidity | Pressure | Rain* | Wind** | Luminosity | Snow |
|---|---|---|---|---|---|---|---|
| 1777449017 | 5° C | 55% | 1024 hPa | - | - | - | - |
| 1777448477 | 5.56° C | 53% | 1024 hPa | - | - | - | - |
| 1777447932 | 5.56° C | 52% | 1024 hPa | - | - | - | - |
| 1777447447 | 5.56° C | 52% | 1024 hPa | - | - | - | - |
| 1777446907 | 4.44° C | 56% | 1023 hPa | - | - | - | - |
| 1777446347 | 3.89° C | 60% | 1023 hPa | - | - | - | - |
| 1777445787 | 4.44° C | 57% | 1023 hPa | - | - | - | - |
| 1777445252 | 5.56° C | 55% | 1023 hPa | - | - | - | - |
| 1777444702 | 5° C | 55% | 1023 hPa | - | - | - | - |
| 1777444197 | 5° C | 59% | 1023 hPa | - | - | - | - |
| 1777443672 | 5° C | 58% | 1023 hPa | - | - | - | - |
| 1777443143 | 5° C | 58% | 1023 hPa | - | - | - | - |
| 1777442637 | 5° C | 58% | 1023 hPa | - | - | - | - |
| 1777442092 | 4.44° C | 61% | 1023 hPa | - | - | - | - |
| 1777441572 | 3.89° C | 61% | 1023 hPa | - | - | - | - |
| 1777441052 | 3.33° C | 62% | 1023 hPa | - | - | - | - |
| 1777440562 | 2.78° C | 64% | 1023 hPa | - | - | - | - |
| 1777439973 | 2.22° C | 66% | 1023 hPa | - | - | - | - |
| 1777439387 | 1.67° C | 68% | 1023 hPa | - | - | - | - |
| 1777438837 | 1.11° C | 69% | 1023 hPa | - | - | - | - |
| 1777438282 | 0.56° C | 69% | 1023 hPa | - | - | - | - |
| 1777437746 | 0.56° C | 69% | 1023 hPa | - | - | - | - |
| 1777436637 | 0° C | 70% | 1023 hPa | - | - | - | - |
| 1777436137 | -0.56° C | 71% | 1023 hPa | - | - | - | - |
| 1777435547 | -1.11° C | 72% | 1023 hPa | - | - | - | - |
* Rain since midnight (hover to see other rain measurements)
** Current wind speed in m/s (hover to see current wind gust speed)